Time;durP1;ratioP1;P1;durP2;ratioP2;P2;SDS_P1;SDS_P2;PMS_P1;PMS_P2;Temp;Humidity;BMP_temperature;BMP_pressure;BME280_temperature;BME280_humidity;BME280_pressure;Samples;Min_cycle;Max_cycle;Signal;HPM_P1;HPM_P2
2023/03/23 00:01:26;;;;;;;9.10;6.88;;;;;;;10.52;80.24;99403.47;6109184;23;20429;-88
2023/03/23 00:03:52;;;;;;;14.30;8.15;;;;;;;10.60;79.69;99410.22;6108675;23;20080;-88
2023/03/23 00:06:18;;;;;;;15.43;7.82;;;;;;;10.55;79.97;99410.22;6133059;23;20002;-87
2023/03/23 00:08:45;;;;;;;10.93;7.35;;;;;;;10.60;79.41;99407.53;6107776;23;20349;-87
2023/03/23 00:11:15;;;;;;;12.65;7.88;;;;;;;10.42;79.91;99409.66;6133443;23;20001;-88
2023/03/23 00:13:42;;;;;;;11.15;7.45;;;;;;;10.50;79.97;99403.75;6133010;23;20010;-88
2023/03/23 00:16:16;;;;;;;10.63;7.88;;;;;;;10.53;79.69;99413.19;6132556;23;20010;-88
2023/03/23 00:18:52;;;;;;;10.50;7.30;;;;;;;10.62;78.08;99416.94;6109795;23;20357;-88
2023/03/23 00:21:25;;;;;;;10.25;6.50;;;;;;;10.47;78.61;99411.56;6132446;23;20001;-88
2023/03/23 00:23:51;;;;;;;11.02;7.65;;;;;;;10.51;78.45;99397.28;6109951;23;20041;-87
2023/03/23 00:26:16;;;;;;;11.07;7.75;;;;;;;10.50;78.58;99413.72;6109041;23;20006;-87
2023/03/23 00:28:41;;;;;;;12.55;7.70;;;;;;;10.51;78.60;99408.06;6108356;23;20001;-88
2023/03/23 00:31:10;;;;;;;11.10;7.45;;;;;;;10.58;78.69;99412.38;6108338;23;20349;-88
2023/03/23 00:33:40;;;;;;;11.30;8.05;;;;;;;10.51;78.54;99396.50;6109999;23;20012;-88
2023/03/23 00:36:08;;;;;;;11.90;7.97;;;;;;;10.54;78.53;99401.31;6133214;23;20012;-87
2023/03/23 00:38:34;;;;;;;13.23;7.50;;;;;;;10.58;78.48;99399.72;6084257;23;20472;-87
2023/03/23 00:41:02;;;;;;;11.27;7.85;;;;;;;10.61;78.55;99409.16;6108752;23;19993;-88
2023/03/23 00:43:28;;;;;;;9.95;7.57;;;;;;;10.58;78.23;99401.59;6109405;23;20009;-88
2023/03/23 00:45:54;;;;;;;11.18;8.15;;;;;;;10.71;77.65;99398.41;6084500;23;20009;-88
2023/03/23 00:48:20;;;;;;;10.98;7.97;;;;;;;10.73;77.90;99396.25;6108062;23;20351;-87
2023/03/23 00:50:46;;;;;;;11.63;7.97;;;;;;;10.76;78.21;99392.19;6107978;23;20008;-88
2023/03/23 00:53:11;;;;;;;13.73;8.93;;;;;;;10.64;79.02;99395.94;6107857;23;20514;-87
2023/03/23 00:55:37;;;;;;;11.13;7.53;;;;;;;10.57;78.06;99391.94;6108023;23;20352;-88
2023/03/23 00:58:02;;;;;;;11.18;7.72;;;;;;;10.50;78.79;99392.19;6107991;23;20001;-88
2023/03/23 01:00:28;;;;;;;12.65;8.18;;;;;;;10.50;78.53;99398.38;6107903;23;20002;-88
2023/03/23 01:02:53;;;;;;;12.55;7.78;;;;;;;10.59;77.79;99392.47;6083843;23;20318;-88
2023/03/23 01:05:19;;;;;;;12.48;7.82;;;;;;;10.46;77.84;99391.09;6132151;23;20425;-87
2023/03/23 01:07:45;;;;;;;10.60;7.32;;;;;;;10.51;77.82;99389.22;6108563;23;20001;-87
2023/03/23 01:10:15;;;;;;;12.05;7.57;;;;;;;10.64;78.06;99404.03;6132216;23;20012;-88
2023/03/23 01:12:43;;;;;;;12.15;8.40;;;;;;;10.58;78.06;99394.31;6108582;23;20461;-87
2023/03/23 01:15:09;;;;;;;15.30;8.90;;;;;;;10.60;78.52;99394.88;6107556;23;20002;-87
2023/03/23 01:17:34;;;;;;;12.52;7.95;;;;;;;10.60;77.36;99378.72;6107983;23;20444;-88
2023/03/23 01:20:00;;;;;;;12.80;7.60;;;;;;;10.56;77.98;99391.09;6107351;23;19998;-87
2023/03/23 01:22:25;;;;;;;14.60;7.97;;;;;;;10.50;76.89;99381.44;6132561;23;20092;-88
2023/03/23 01:24:51;;;;;;;11.73;7.80;;;;;;;10.44;77.55;99388.69;6132380;23;20444;-88
2023/03/23 01:27:16;;;;;;;13.95;8.07;;;;;;;10.43;78.23;99389.75;6107658;23;19997;-88
2023/03/23 01:29:42;;;;;;;12.80;8.20;;;;;;;10.45;78.26;99392.16;6108110;23;20009;-88
2023/03/23 01:32:07;;;;;;;15.27;8.30;;;;;;;10.37;77.91;99390.00;6131859;23;20012;-88
2023/03/23 01:34:33;;;;;;;14.75;7.90;;;;;;;10.30;77.89;99384.88;6108401;23;20064;-88
2023/03/23 01:36:58;;;;;;;12.68;7.38;;;;;;;10.34;77.96;99387.84;6107991;23;19998;-88
2023/03/23 01:39:24;;;;;;;15.35;8.25;;;;;;;10.19;79.31;99388.56;6107444;23;19997;-87
2023/03/23 01:41:49;;;;;;;14.90;9.05;;;;;;;10.29;79.30;99393.97;6107965;23;20009;-88
2023/03/23 01:44:15;;;;;;;15.52;8.90;;;;;;;10.47;78.49;99403.47;6107659;23;20005;-88
2023/03/23 01:46:40;;;;;;;14.05;8.65;;;;;;;10.46;78.17;99394.59;6156861;23;20009;-88
2023/03/23 01:49:09;;;;;;;11.15;7.68;;;;;;;10.48;77.88;99394.34;6106410;23;20002;-88
2023/03/23 01:51:37;;;;;;;13.32;8.75;;;;;;;10.43;78.57;99388.94;6131781;23;20433;-88
2023/03/23 01:54:04;;;;;;;16.00;9.13;;;;;;;10.40;79.13;99387.59;6131644;23;20009;-88
2023/03/23 01:56:37;;;;;;;12.02;7.53;;;;;;;10.48;78.87;99388.97;6108017;23;20006;-88
2023/03/23 01:59:03;;;;;;;14.10;7.25;;;;;;;10.47;78.26;99398.91;6108958;23;20059;-88
2023/03/23 02:01:28;;;;;;;11.43;7.95;;;;;;;10.46;78.14;99397.28;6107411;23;20483;-87
2023/03/23 02:03:54;;;;;;;12.02;7.70;;;;;;;10.41;78.90;99393.78;6107130;23;20001;-88
2023/03/23 02:06:20;;;;;;;12.60;7.38;;;;;;;10.38;78.74;99397.00;6132327;23;20008;-88
2023/03/23 02:08:45;;;;;;;14.00;7.07;;;;;;;10.42;78.71;99401.59;6131124;23;20008;-87
2023/03/23 02:11:15;;;;;;;16.40;7.85;;;;;;;10.45;78.92;99395.66;6107177;23;20428;-88
2023/03/23 02:13:40;;;;;;;8.95;6.05;;;;;;;10.47;77.88;99398.09;6107966;23;20009;-87
2023/03/23 02:16:14;;;;;;;10.10;6.50;;;;;;;10.47;78.61;99409.66;6107945;23;20012;-88
2023/03/23 02:19:00;;;;;;;11.32;6.60;;;;;;;10.57;78.18;99403.50;6131713;23;20027;-87
2023/03/23 02:21:41;;;;;;;9.52;6.18;;;;;;;10.65;78.32;99419.13;6135559;23;20005;-88
2023/03/23 02:24:22;;;;;;;9.75;5.90;;;;;;;10.51;78.19;99410.75;6159031;23;20005;-87
2023/03/23 02:27:02;;;;;;;9.60;5.93;;;;;;;10.46;78.96;99405.38;6135012;23;20448;-88
2023/03/23 02:29:50;;;;;;;11.30;6.75;;;;;;;10.30;79.17;99419.88;6133786;23;20040;-88
2023/03/23 02:32:41;;;;;;;9.48;6.22;;;;;;;10.31;79.02;99422.31;6114221;23;20005;-88
2023/03/23 02:35:24;;;;;;;11.52;7.13;;;;;;;10.29;78.81;99420.91;6157746;23;20009;-88
2023/03/23 02:37:51;;;;;;;9.75;5.78;;;;;;;10.36;78.55;99423.38;6133005;23;20010;-88
2023/03/23 02:40:23;;;;;;;10.88;6.43;;;;;;;10.12;78.92;99419.22;6109316;23;20072;-87
2023/03/23 02:42:50;;;;;;;12.30;6.77;;;;;;;10.19;79.02;99413.63;6133599;23;20025;-88
2023/03/23 02:45:15;;;;;;;8.85;5.78;;;;;;;10.35;78.71;99433.31;6133520;23;20236;-88
2023/03/23 02:47:41;;;;;;;9.88;5.78;;;;;;;10.39;78.14;99429.03;6109960;23;20027;-88
2023/03/23 02:50:08;;;;;;;8.05;5.40;;;;;;;10.40;77.62;99424.47;6112382;23;20001;-87
2023/03/23 02:52:34;;;;;;;8.35;5.68;;;;;;;10.41;78.14;99434.94;6133768;23;20360;-88
2023/03/23 02:55:00;;;;;;;10.23;5.40;;;;;;;10.42;78.55;99420.44;6109813;23;20001;-87
2023/03/23 02:57:26;;;;;;;8.82;5.72;;;;;;;10.47;78.69;99435.78;6109852;23;20005;-88
2023/03/23 02:59:51;;;;;;;9.60;5.75;;;;;;;10.42;78.62;99441.16;6134438;23;20040;-87
2023/03/23 03:02:17;;;;;;;7.80;5.85;;;;;;;10.39;78.32;99436.31;6109047;23;20005;-87
2023/03/23 03:04:46;;;;;;;10.32;5.50;;;;;;;10.38;78.41;99437.38;6159306;23;20006;-88
2023/03/23 03:07:35;;;;;;;10.65;5.65;;;;;;;10.25;78.95;99439.47;6134643;23;20009;-87
2023/03/23 03:10:11;;;;;;;8.68;5.70;;;;;;;10.32;78.52;99456.19;6134199;23;20021;-88
2023/03/23 03:12:57;;;;;;;8.70;5.70;;;;;;;10.31;77.84;99451.91;6133826;23;20016;-87
2023/03/23 03:15:27;;;;;;;8.95;6.25;;;;;;;10.28;78.18;99449.69;6133372;23;20001;-88
2023/03/23 03:17:59;;;;;;;10.38;5.82;;;;;;;10.11;78.89;99446.41;6133525;23;20006;-87
2023/03/23 03:20:26;;;;;;;8.60;5.97;;;;;;;10.14;78.89;99442.38;6112671;23;20005;-88
2023/03/23 03:22:52;;;;;;;11.55;6.13;;;;;;;10.26;78.41;99454.53;6135197;23;20017;-88
2023/03/23 03:25:18;;;;;;;8.85;6.15;;;;;;;10.11;78.95;99455.28;6109190;23;20024;-87
2023/03/23 03:27:45;;;;;;;9.55;6.07;;;;;;;10.12;79.59;99445.34;6109988;23;19997;-88
2023/03/23 03:30:11;;;;;;;10.82;6.55;;;;;;;10.11;78.85;99449.91;6109792;23;20061;-88
2023/03/23 03:32:41;;;;;;;8.85;5.40;;;;;;;10.21;78.15;99459.91;6109628;23;20126;-88
2023/03/23 03:35:06;;;;;;;7.90;5.93;;;;;;;10.00;78.87;99447.44;6134038;23;20032;-88
2023/03/23 03:37:37;;;;;;;9.25;6.20;;;;;;;9.85;79.38;99457.06;6108624;23;20088;-87
2023/03/23 03:40:10;;;;;;;8.43;5.68;;;;;;;10.03;78.46;99463.88;6109785;23;20451;-87
2023/03/23 03:42:40;;;;;;;8.40;5.38;;;;;;;10.10;77.48;99472.50;6135111;23;20008;-88
2023/03/23 03:45:07;;;;;;;8.57;5.28;;;;;;;10.14;78.04;99480.84;6109700;23;20424;-87
2023/03/23 03:47:33;;;;;;;8.20;5.43;;;;;;;10.08;78.37;99468.44;6110110;23;20086;-88
2023/03/23 03:49:58;;;;;;;8.55;5.43;;;;;;;9.91;78.71;99476.72;6110407;23;20002;-88
2023/03/23 03:52:23;;;;;;;8.85;5.57;;;;;;;9.91;78.78;99472.13;6111211;23;20009;-87
2023/03/23 03:54:49;;;;;;;8.60;5.50;;;;;;;9.93;78.86;99476.47;6107743;23;20452;-88
2023/03/23 03:57:17;;;;;;;8.65;5.80;;;;;;;10.03;78.28;99485.38;6110138;23;19997;-89
2023/03/23 03:59:43;;;;;;;9.43;5.47;;;;;;;9.97;78.74;99474.88;6110514;23;19997;-88
2023/03/23 04:02:09;;;;;;;10.00;5.90;;;;;;;10.15;78.21;99482.50;6108645;23;20416;-88
2023/03/23 04:04:34;;;;;;;9.60;6.28;;;;;;;10.02;78.31;99494.53;6108760;23;19996;-88
2023/03/23 04:07:01;;;;;;;8.25;5.65;;;;;;;9.96;78.21;99490.22;6108721;23;20001;-88
2023/03/23 04:09:28;;;;;;;9.27;5.97;;;;;;;9.87;78.97;99489.88;6107851;23;20021;-88
2023/03/23 04:11:53;;;;;;;9.95;5.85;;;;;;;9.88;78.77;99496.88;6108900;23;20001;-88
2023/03/23 04:14:19;;;;;;;10.90;6.20;;;;;;;10.01;78.71;99487.53;6108878;23;20017;-88
2023/03/23 04:16:44;;;;;;;9.00;5.75;;;;;;;10.08;78.20;99492.66;6110015;23;20006;-88
2023/03/23 04:19:12;;;;;;;9.52;6.20;;;;;;;9.90;78.85;99496.63;6109251;23;19997;-88
2023/03/23 04:21:38;;;;;;;9.30;6.30;;;;;;;9.85;79.22;99499.28;6106596;23;20009;-96
2023/03/23 04:24:03;;;;;;;8.93;5.40;;;;;;;9.90;78.05;99499.31;6057713;23;20002;-94
2023/03/23 04:26:29;;;;;;;10.40;6.20;;;;;;;9.87;78.64;99500.63;6105493;23;20353;-95
2023/03/23 04:28:55;;;;;;;9.13;5.63;;;;;;;9.84;78.87;99503.84;6104848;23;20009;-95
2023/03/23 04:31:24;;;;;;;10.93;6.15;;;;;;;9.81;78.79;99498.97;6081314;23;20002;-95
2023/03/23 04:33:52;;;;;;;10.68;6.75;;;;;;;9.88;78.29;99504.16;6105240;23;20064;-96
2023/03/23 04:36:17;;;;;;;9.95;6.18;;;;;;;10.00;78.69;99506.63;6081913;23;20389;-94
2023/03/23 04:38:43;;;;;;;9.75;6.75;;;;;;;9.84;78.53;99506.53;6080512;23;20014;-95
2023/03/23 04:41:08;;;;;;;10.63;7.05;;;;;;;9.85;78.38;99505.47;6104291;23;19997;-94
2023/03/23 04:43:41;;;;;;;11.38;7.13;;;;;;;10.05;77.84;99515.53;6108479;23;19998;-95
2023/03/23 04:46:08;;;;;;;10.18;7.32;;;;;;;9.79;78.19;99501.13;6084146;23;20074;-95
2023/03/23 04:48:34;;;;;;;11.85;6.82;;;;;;;9.89;78.05;99517.31;6108011;23;19997;-96
2023/03/23 04:51:04;;;;;;;11.45;7.50;;;;;;;9.96;77.89;99511.72;6112379;23;20425;-95
2023/03/23 04:53:33;;;;;;;12.98;8.05;;;;;;;9.93;77.99;99503.34;6109401;23;20084;-95
2023/03/23 04:55:58;;;;;;;15.85;8.18;;;;;;;9.91;77.24;99503.63;6104740;23;20030;-96
2023/03/23 04:58:24;;;;;;;13.88;8.65;;;;;;;9.93;77.66;99514.13;6106318;23;19998;-96
2023/03/23 05:00:52;;;;;;;11.75;7.75;;;;;;;9.91;78.08;99515.16;6106404;23;19998;-95
2023/03/23 05:03:18;;;;;;;12.63;8.45;;;;;;;9.88;77.59;99528.34;6079681;23;20433;-88
2023/03/23 05:05:46;;;;;;;14.90;9.23;;;;;;;9.86;77.29;99509.78;6079958;23;20080;-89
2023/03/23 05:08:15;;;;;;;12.18;8.43;;;;;;;9.99;77.21;99527.34;6080191;23;20017;-88
2023/03/23 05:10:41;;;;;;;13.13;8.10;;;;;;;9.80;76.60;99504.63;6079093;23;20084;-89
2023/03/23 05:13:06;;;;;;;15.38;9.05;;;;;;;10.05;76.63;99536.25;6078497;23;20006;-89
2023/03/23 05:15:32;;;;;;;13.95;8.45;;;;;;;10.01;75.90;99527.06;6055108;23;20057;-88
2023/03/23 05:17:57;;;;;;;15.75;9.23;;;;;;;9.91;76.99;99542.06;6103236;23;20006;-89
2023/03/23 05:20:23;;;;;;;14.57;9.00;;;;;;;9.70;76.62;99524.19;6079044;23;19998;-89
2023/03/23 05:22:49;;;;;;;13.95;9.48;;;;;;;9.75;77.39;99537.66;6099602;23;20018;-89
2023/03/23 05:25:14;;;;;;;15.30;8.15;;;;;;;9.64;76.66;99531.41;6132223;23;20049;-90
2023/03/23 05:27:43;;;;;;;12.98;8.45;;;;;;;9.82;76.17;99534.78;6108279;23;20032;-89
2023/03/23 05:30:08;;;;;;;16.10;8.80;;;;;;;9.77;76.18;99529.34;6109554;23;20440;-89
2023/03/23 05:32:34;;;;;;;13.10;8.30;;;;;;;9.71;76.20;99534.69;6108660;23;20010;-88
2023/03/23 05:35:00;;;;;;;12.57;8.32;;;;;;;9.76;76.36;99552.75;6109508;23;19997;-88
2023/03/23 05:37:32;;;;;;;18.42;9.00;;;;;;;9.71;76.47;99550.84;6107943;23;20013;-88
2023/03/23 05:39:58;;;;;;;16.55;8.48;;;;;;;9.64;76.97;99531.41;6108609;23;19993;-89
2023/03/23 05:42:26;;;;;;;13.57;9.02;;;;;;;9.90;76.37;99545.84;6109353;23;20440;-88
2023/03/23 05:44:54;;;;;;;14.43;9.23;;;;;;;9.50;78.77;99546.34;6108436;23;20002;-89
2023/03/23 05:47:19;;;;;;;14.02;9.27;;;;;;;9.69;77.03;99554.81;6109432;23;20005;-89
2023/03/23 05:49:47;;;;;;;14.52;9.40;;;;;;;9.56;77.12;99544.53;6108140;23;20009;-88
2023/03/23 05:52:13;;;;;;;16.92;9.15;;;;;;;9.65;76.98;99556.41;6133436;23;20021;-89
2023/03/23 05:54:38;;;;;;;15.15;8.45;;;;;;;9.93;75.93;99562.53;6083672;23;20002;-87
2023/03/23 05:57:05;;;;;;;14.13;9.07;;;;;;;9.64;77.17;99552.13;6108135;23;20336;-87
2023/03/23 05:59:30;;;;;;;15.57;9.10;;;;;;;9.80;76.01;99561.91;6108680;23;20089;-87
2023/03/23 06:01:57;;;;;;;17.30;9.73;;;;;;;9.82;76.26;99548.22;6106924;23;20002;-87
2023/03/23 06:04:24;;;;;;;16.00;9.32;;;;;;;10.05;75.24;99560.47;6110490;23;20004;-87
2023/03/23 06:06:51;;;;;;;14.77;8.80;;;;;;;10.03;75.47;99549.94;6108432;23;20348;-87
2023/03/23 06:09:17;;;;;;;16.70;10.38;;;;;;;10.08;74.91;99552.66;6135860;23;20084;-87
2023/03/23 06:11:43;;;;;;;12.27;8.30;;;;;;;9.98;74.93;99549.09;6108603;23;20009;-88
2023/03/23 06:14:12;;;;;;;12.88;8.07;;;;;;;10.19;74.20;99568.84;6107959;23;20005;-88
2023/03/23 06:16:38;;;;;;;12.55;7.85;;;;;;;10.16;73.78;99580.97;6110764;23;20069;-90
2023/03/23 06:19:04;;;;;;;11.85;7.80;;;;;;;9.93;73.96;99531.06;6137789;23;20008;-93
2023/03/23 06:21:32;;;;;;;10.98;7.78;;;;;;;10.21;73.21;99572.94;6112662;23;20013;-93
2023/03/23 06:23:59;;;;;;;15.00;8.82;;;;;;;10.29;73.21;99571.59;6112891;23;20010;-95
2023/03/23 06:26:28;;;;;;;13.73;8.60;;;;;;;9.98;75.25;99573.31;6120212;23;20013;-94
2023/03/23 06:28:54;;;;;;;13.77;8.63;;;;;;;10.12;74.50;99569.09;6112169;23;20008;-93
2023/03/23 06:31:22;;;;;;;15.55;10.40;;;;;;;10.21;74.58;99562.16;6113047;23;20064;-93
2023/03/23 06:33:48;;;;;;;13.95;8.77;;;;;;;10.69;74.15;99584.47;6089994;23;20013;-93
2023/03/23 06:36:14;;;;;;;13.70;8.60;;;;;;;10.77;73.23;99572.38;6139897;23;20002;-92
2023/03/23 06:38:40;;;;;;;18.55;9.35;;;;;;;11.09;73.52;99588.34;6114129;23;20368;-96
2023/03/23 06:41:06;;;;;;;15.77;9.73;;;;;;;11.12;72.92;99566.28;6089297;23;20001;-95
2023/03/23 06:43:31;;;;;;;13.27;8.57;;;;;;;11.21;72.11;99579.22;6138186;23;20053;-94
2023/03/23 06:46:09;;;;;;;14.70;8.38;;;;;;;11.19;70.84;99586.78;6092132;23;19998;-94
2023/03/23 06:48:58;;;;;;;13.05;8.07;;;;;;;11.21;71.60;99566.56;6115613;23;20021;-90
2023/03/23 06:51:26;;;;;;;10.63;7.47;;;;;;;11.45;69.70;99569.53;6115855;23;20061;-93
2023/03/23 06:53:52;;;;;;;10.82;7.43;;;;;;;11.57;67.70;99582.75;6110828;23;20010;-90
2023/03/23 06:56:26;;;;;;;11.88;6.78;;;;;;;11.58;68.11;99568.19;6111208;23;20008;-92
2023/03/23 06:58:52;;;;;;;11.68;6.88;;;;;;;11.63;68.68;99586.25;6137237;23;20008;-91
2023/03/23 07:01:21;;;;;;;11.25;7.50;;;;;;;11.73;67.89;99573.56;6112710;23;20005;-90
2023/03/23 07:03:48;;;;;;;11.25;7.13;;;;;;;11.79;67.10;99581.69;6111832;23;20001;-89
2023/03/23 07:06:15;;;;;;;8.88;6.38;;;;;;;11.85;65.11;99569.78;6110739;23;20501;-90
2023/03/23 07:08:41;;;;;;;10.75;6.20;;;;;;;12.09;65.15;99581.63;6110642;23;20108;-91
2023/03/23 07:11:07;;;;;;;13.18;9.38;;;;;;;12.37;64.96;99609.13;6111399;23;20035;-89
2023/03/23 07:13:33;;;;;;;10.82;6.90;;;;;;;12.23;64.29;99581.88;6112572;23;20093;-89
2023/03/23 07:15:59;;;;;;;8.52;6.03;;;;;;;12.20;64.63;99598.66;6087661;23;20040;-89
2023/03/23 07:18:27;;;;;;;14.02;7.00;;;;;;;12.00;65.22;99572.50;6113179;23;20016;-91
2023/03/23 07:20:53;;;;;;;9.43;6.63;;;;;;;11.65;66.69;99584.09;6113293;23;19998;-90
2023/03/23 07:23:19;;;;;;;9.60;7.13;;;;;;;11.81;67.59;99601.09;6111529;23;20368;-90
2023/03/23 07:25:45;;;;;;;9.82;6.85;;;;;;;11.68;67.25;99589.78;6087686;23;20101;-90
2023/03/23 07:28:11;;;;;;;14.80;7.00;;;;;;;11.90;68.13;99626.47;6086122;23;20005;-89
2023/03/23 07:30:37;;;;;;;11.43;7.20;;;;;;;11.91;67.21;99591.13;6111593;23;20006;-90
2023/03/23 07:33:06;;;;;;;11.07;7.15;;;;;;;11.79;67.50;99598.66;6111431;23;20028;-90
2023/03/23 07:35:32;;;;;;;9.35;6.50;;;;;;;11.90;66.18;99610.28;6136562;23;19989;-90
2023/03/23 07:38:01;;;;;;;13.82;7.38;;;;;;;11.93;67.33;99607.03;6115427;23;20012;-93
2023/03/23 07:40:27;;;;;;;9.25;6.18;;;;;;;11.91;66.75;99601.09;6115570;23;20063;-93
2023/03/23 07:43:02;;;;;;;16.00;7.22;;;;;;;12.14;65.75;99613.22;6113676;23;20009;-92
2023/03/23 07:45:30;;;;;;;10.15;6.82;;;;;;;12.10;65.78;99602.16;6115387;23;20013;-91
2023/03/23 07:47:56;;;;;;;11.27;6.18;;;;;;;11.99;66.29;99615.94;6113099;23;20001;-91
2023/03/23 07:50:24;;;;;;;10.77;7.53;;;;;;;12.08;66.26;99620.53;6109941;23;20012;-91
2023/03/23 07:52:59;;;;;;;9.10;6.20;;;;;;;12.28;65.65;99619.66;6111001;23;20016;-91
2023/03/23 07:55:28;;;;;;;10.95;6.45;;;;;;;12.23;65.90;99616.19;6087759;23;20088;-89
2023/03/23 07:57:55;;;;;;;10.07;6.50;;;;;;;12.16;65.69;99610.25;6136928;23;20002;-91
2023/03/23 08:00:23;;;;;;;9.30;6.63;;;;;;;12.32;65.79;99618.03;6087941;23;20001;-91
2023/03/23 08:02:50;;;;;;;10.98;6.38;;;;;;;12.40;64.38;99640.97;6136647;23;20002;-92
2023/03/23 08:05:20;;;;;;;11.93;7.75;;;;;;;12.18;63.72;99610.78;6137263;23;20451;-88
2023/03/23 08:07:49;;;;;;;8.80;5.82;;;;;;;12.28;64.42;99638.56;6114421;23;20001;-92
2023/03/23 08:10:17;;;;;;;9.95;7.05;;;;;;;12.38;64.83;99613.44;6137485;23;20005;-93
2023/03/23 08:12:55;;;;;;;9.27;5.93;;;;;;;12.32;65.22;99626.13;6137441;23;20013;-91
2023/03/23 08:15:33;;;;;;;;;;;;;;;;;;;;;
2023/03/23 08:18:00;;;;;;;9.75;6.38;;;;;;;12.29;63.60;99624.00;6074719;23;20034;-90
2023/03/23 08:20:29;;;;;;;10.93;6.65;;;;;;;12.57;63.82;99635.25;6074649;23;20002;-90
2023/03/23 08:23:01;;;;;;;9.15;6.20;;;;;;;12.38;64.10;99634.22;6030720;23;20035;-91
2023/03/23 08:25:27;;;;;;;11.63;7.15;;;;;;;12.70;64.00;99652.75;6114004;23;20015;-91
2023/03/23 08:27:53;;;;;;;11.07;7.63;;;;;;;12.80;64.46;99660.03;6036229;23;20158;-92
2023/03/23 08:30:22;;;;;;;11.77;6.93;;;;;;;12.70;63.19;99623.03;6029672;23;20007;-91
2023/03/23 08:32:52;;;;;;;10.45;6.88;;;;;;;12.81;62.61;99640.84;6073506;23;20038;-94
2023/03/23 08:35:21;;;;;;;52.35;25.75;;;;;;;12.78;62.70;99649.50;6096385;23;20007;-90
2023/03/23 08:37:54;;;;;;;12.43;8.25;;;;;;;12.84;62.41;99653.00;6073530;23;20026;-92
2023/03/23 08:40:23;;;;;;;9.70;6.93;;;;;;;13.00;61.85;99661.84;6027398;23;20442;-91
2023/03/23 08:43:21;;;;;;;13.82;8.63;;;;;;;12.88;62.14;99618.91;6071051;23;20010;-92
2023/03/23 08:45:58;;;;;;;11.40;6.03;;;;;;;12.77;62.48;99620.06;6045999;23;20477;-92
2023/03/23 08:48:24;;;;;;;38.45;25.02;;;;;;;13.23;61.92;99661.19;6057707;23;20010;-91
2023/03/23 08:50:50;;;;;;;10.45;5.35;;;;;;;13.17;61.60;99651.47;6108503;23;20442;-91
2023/03/23 08:53:24;;;;;;;15.07;6.28;;;;;;;13.29;61.82;99643.06;6077575;23;20002;-93
2023/03/23 08:55:50;;;;;;;10.93;6.80;;;;;;;13.39;60.03;99651.13;6053213;23;20002;-92
2023/03/23 08:58:18;;;;;;;10.10;6.25;;;;;;;13.23;60.28;99638.75;6052846;23;20065;-91
2023/03/23 09:00:43;;;;;;;8.80;6.50;;;;;;;13.54;59.38;99661.03;6075978;23;20058;-92
2023/03/23 09:03:17;;;;;;;11.18;6.50;;;;;;;13.18;59.90;99628.78;6103041;23;20066;-92
2023/03/23 09:05:45;;;;;;;9.80;5.95;;;;;;;13.42;60.75;99650.56;6102380;23;20006;-91
2023/03/23 09:08:14;;;;;;;13.10;6.68;;;;;;;13.87;59.03;99664.06;6077015;23;20003;-91
2023/03/23 09:10:46;;;;;;;11.05;6.45;;;;;;;13.90;56.98;99649.94;6079562;23;20016;-93
2023/03/23 09:13:23;;;;;;;;;;;;;;;14.00;57.05;99659.88;6051822;23;20003;-91
2023/03/23 09:15:49;;;;;;;10.07;5.65;;;;;;;13.73;55.10;99632.19;6086775;23;19912;-92
2023/03/23 09:18:54;;;;;;;9.25;5.75;;;;;;;13.64;56.66;99620.38;6137546;23;19997;-93
2023/03/23 09:21:21;;;;;;;8.13;5.72;;;;;;;13.61;57.43;99615.50;6141678;23;20429;-91
2023/03/23 09:23:56;;;;;;;9.73;6.25;;;;;;;13.56;58.61;99622.88;6113567;23;20021;-92
2023/03/23 09:26:27;;;;;;;8.98;6.45;;;;;;;13.52;57.72;99641.56;6117888;23;20449;-90
2023/03/23 09:28:56;;;;;;;9.85;5.63;;;;;;;13.74;57.40;99641.16;6110880;23;20012;-88
2023/03/23 09:31:22;;;;;;;10.05;6.47;;;;;;;13.68;57.75;99623.34;6109480;23;20009;-88
2023/03/23 09:33:51;;;;;;;6.28;4.95;;;;;;;13.86;56.42;99648.88;6108299;23;20116;-88
2023/03/23 09:36:18;;;;;;;7.40;5.15;;;;;;;13.98;55.83;99643.09;6133657;23;19997;-90
2023/03/23 09:38:45;;;;;;;7.93;4.72;;;;;;;14.13;52.83;99634.84;6134673;23;20005;-88
2023/03/23 09:41:54;;;;;;;9.80;5.75;;;;;;;14.35;54.16;99648.69;6109665;23;20069;-88
2023/03/23 09:44:41;;;;;;;8.57;5.45;;;;;;;14.39;55.01;99627.28;6160853;23;20002;-89
2023/03/23 09:47:23;;;;;;;10.68;6.00;;;;;;;14.38;55.15;99641.09;6146133;23;20037;-90
2023/03/23 09:50:18;;;;;;;10.10;5.88;;;;;;;14.37;54.26;99620.53;6136201;23;20063;-90
2023/03/23 09:53:13;;;;;;;10.32;5.75;;;;;;;14.58;55.30;99613.00;6117459;23;20032;-89
2023/03/23 09:55:50;;;;;;;10.38;5.78;;;;;;;14.70;53.99;99621.53;6138172;23;20026;-90
2023/03/23 09:58:26;;;;;;;9.52;4.80;;;;;;;14.82;52.62;99619.22;6135151;23;20001;-90
2023/03/23 10:00:58;;;;;;;6.95;4.40;;;;;;;14.63;50.91;99643.56;6112889;23;20143;-89
2023/03/23 10:03:30;;;;;;;;;;;;;;;14.69;52.53;99641.59;6167583;23;19998;-90
2023/03/23 10:05:56;;;;;;;10.65;4.78;;;;;;;14.64;53.35;99620.78;6110311;23;20188;-90
2023/03/23 10:08:24;;;;;;;18.05;9.55;;;;;;;14.54;52.02;99632.50;6136667;23;20005;-90
2023/03/23 10:11:07;;;;;;;9.95;5.45;;;;;;;14.63;54.14;99642.75;6138146;23;20002;-91
2023/03/23 10:14:28;;;;;;;10.93;5.13;;;;;;;14.87;51.72;99640.03;6137627;23;20093;-89
2023/03/23 10:17:17;;;;;;;8.38;5.50;;;;;;;15.07;52.08;99634.34;6071607;23;20003;-90
2023/03/23 10:19:51;;;;;;;10.70;5.10;;;;;;;15.45;50.64;99626.22;6137277;23;20060;-90
2023/03/23 10:22:20;;;;;;;8.88;4.70;;;;;;;15.50;49.02;99618.00;6137940;23;20051;-89
2023/03/23 10:25:15;;;;;;;7.85;5.47;;;;;;;15.59;49.16;99612.72;6113710;23;20018;-87
2023/03/23 10:28:16;;;;;;;8.18;5.40;;;;;;;15.53;50.21;99635.59;6138348;23;20004;-88
2023/03/23 10:30:43;;;;;;;8.57;5.20;;;;;;;15.25;50.08;99629.22;6111738;23;20089;-89
2023/03/23 10:33:34;;;;;;;10.77;5.88;;;;;;;15.29;49.91;99628.38;6141709;23;20001;-87
2023/03/23 10:36:12;;;;;;;9.00;5.22;;;;;;;15.21;50.09;99606.50;6120246;23;20008;-95
2023/03/23 10:38:51;;;;;;;8.13;5.30;;;;;;;15.48;47.78;99619.38;6124356;23;20016;-95
2023/03/23 10:41:21;;;;;;;7.30;4.88;;;;;;;15.36;47.42;99611.72;6167395;23;20053;-88
2023/03/23 10:43:50;;;;;;;9.82;5.55;;;;;;;15.39;49.63;99589.41;6135961;23;20400;-87
2023/03/23 10:46:22;;;;;;;7.82;5.45;;;;;;;15.54;48.54;99616.31;6134451;23;20021;-87
2023/03/23 10:48:49;;;;;;;;;;;;;;;15.42;49.47;99609.69;6107358;23;20085;-87
2023/03/23 10:51:16;;;;;;;11.73;5.70;;;;;;;15.24;51.10;99611.34;6110263;23;19909;-88
2023/03/23 10:53:48;;;;;;;9.13;5.78;;;;;;;15.21;50.77;99591.03;6090271;23;20002;-87
2023/03/23 10:56:26;;;;;;;10.43;6.35;;;;;;;15.41;49.51;99595.34;6087785;23;20002;-87
2023/03/23 10:59:21;;;;;;;;;;;;;;;;;;;;;
2023/03/23 11:02:07;;;;;;;9.77;5.72;;;;;;;15.48;48.61;99590.34;6138028;23;20029;-86
2023/03/23 11:05:23;;;;;;;8.75;5.53;;;;;;;15.50;49.45;99603.59;6113430;23;20025;-88
2023/03/23 11:08:03;;;;;;;11.40;6.30;;;;;;;15.38;49.88;99576.94;6096055;23;20005;-88
2023/03/23 11:11:00;;;;;;;9.77;5.57;;;;;;;15.44;49.49;99600.19;6086381;23;20088;-88
2023/03/23 11:13:51;;;;;;;;;;;;;;;;;;;;;
2023/03/23 11:16:27;;;;;;;8.27;6.30;;;;;;;15.24;50.04;99570.66;6111137;23;20385;-90
2023/03/23 11:18:53;;;;;;;7.55;5.30;;;;;;;15.02;48.86;99552.25;6109403;23;20006;-89
2023/03/23 11:21:28;;;;;;;7.55;5.40;;;;;;;15.34;50.40;99563.16;6083998;23;20058;-88
2023/03/23 11:23:58;;;;;;;13.32;6.70;;;;;;;15.47;49.63;99555.38;6109800;23;20085;-92
2023/03/23 11:26:41;;;;;;;;;;;;;;;;;;;;;
2023/03/23 11:29:18;;;;;;;7.25;5.47;;;;;;;15.21;48.66;99544.09;6114085;23;20010;-94
2023/03/23 11:35:14;;;;;;;;;;;;;;;;;;;;;
2023/03/23 11:37:46;;;;;;;12.25;5.88;;;;;;;15.23;48.71;99569.84;6096146;23;20013;-96
2023/03/23 11:40:18;;;;;;;10.52;5.80;;;;;;;15.27;47.99;99576.31;6113010;23;20002;-93
2023/03/23 11:46:45;;;;;;;9.20;6.93;;;;;;;15.36;49.03;99560.16;6075486;23;20022;-95
2023/03/23 11:49:26;;;;;;;12.07;7.28;;;;;;;15.24;48.59;99532.69;6074002;23;20586;-96
2023/03/23 11:51:57;;;;;;;8.50;6.00;;;;;;;15.02;48.29;99520.50;6052803;23;20003;-94
2023/03/23 11:54:38;;;;;;;8.95;5.45;;;;;;;15.43;47.83;99554.34;6060104;23;20007;-95
2023/03/23 11:57:32;;;;;;;;;;;;;;;;;;;;;
2023/03/23 12:00:11;;;;;;;10.85;6.35;;;;;;;15.07;48.45;99520.44;6042836;23;20024;-94